Agnew, MI

11:27 PM EST on December 04, 2016 (GMT -0500)
Hunters Woods | | Change Station

Elev 620 ft 43.00 °N, 86.17 °W | Updated 0 second ago

Light Rain
Light Rain
32.0 °F
Feels Like 32 °F
N
0.0
Wind Variable Wind from NE

Today
High -- | Low -- °F
--% Chance of Precip.
Yesterday
High -- | Low -- °F
Precip. -- in
Pressure 29.83 in
Visibility 7.0 miles
Clouds Few 700 ft
Mostly Cloudy 1400 ft
Overcast 2700 ft
Windchill 32 °F
Dew Point 30 °F
Humidity 94%
Rainfall 0.00 in
Snow Depth Not available.
7:59 AM 5:10 PM
Waxing Crescent, 28% visible
SPECI KMKG 050417Z AUTO 25004KT 7SM -RA FEW007 BKN014 OVC027 02/01 A2983 RMK AO2 P0001 T00170006
Pressure 29.83 in
Visibility 7.0 miles
Clouds Few 700 ft
Mostly Cloudy 1400 ft
Overcast 2700 ft
Windchill 32 °F
Dew Point 30 °F
Humidity 94%
Rainfall 0.00 in
Snow Depth Not available.
7:59 AM 5:10 PM
Waxing Crescent, 28% visible
SPECI KMKG 050417Z AUTO 25004KT 7SM -RA FEW007 BKN014 OVC027 02/01 A2983 RMK AO2 P0001 T00170006

10-Day Weather Forecast

Almanac

Astronomy

Dec. 04, 2016 Rise Set
Actual Time
Civil Twilight
Nautical Twilight
Astronomical Twilight
Moon
Length of Visible Light
Length of Day
Tomorrow will be .
, % of the Moon is Illuminated

Today's Extremes

State Highs State Lows

Community

WunderPhotos

Upload Photos

1,955,759 photos uploaded!

WunderBlog® & News

Nearby

Air Quality

  Air Quality AQ Index Pollutant
Not available.

Snow Depth

Station Depth Elevation

Earthquake Activity

City Distance Mag. Time & Date
Minimum magnitude displayed is 2.5.

Coastal Water Temperatures

Place Temperature

Stations

Nearby Weather Stations

Station Location Temp. Windchill Dew Point Humidity Wind Precip. Elev Updated Type
                   

Watches & Warnings

There are currently no watches in effect.